Tiempo atmosférico en la estación meteorológica de Jaca, Huesca (830 m.)



Fecha
DESCASC
Temp. máxima en grados centígrados (hora)
DESCASC
Temp. mínima en grados centígrados (hora)
DESCASC
Temp. media en grados centígrados
DESCASC
Racha de viento máxima en m/sg (hora)
DESCASC
Velocidad máxima media en intervalos de 10 minutos(hora)
DESCASC
Precipitaciones diarias en mm
DESCASC
Precipitaciones de 00:00 a 06:00 en mm
DESCASC
Precipitaciones de 06:00 a 12:00 en mm
DESCASC
Precipitaciones de 12:00 a 18:00 en mm
DESCASC
Precipitaciones de 18:00 a 24:00 en mm
DESCASC
29-03-2020 16.1 (15:30) -0.2 (08:20) 8 16.11 (19:50) 8.89 (18:40) 0 0 0 0 0
28-03-2020 15.9 (15:00) 0.8 (07:50) 8.3 8.89 (20:40) 5 (20:40) 0 0 0 0 0
27-03-2020 12.6 (16:40) -3 (06:40) 4.8 5.56 (00:30) 2.5 (01:40) 0 0 0 0 0
26-03-2020 11.1 (15:20) -0.8 (-00:0) 5.2 13.89 (11:10) 9.44 (16:50) 0.1 0.1 0 0 0
25-03-2020 9.1 (12:10) 1.9 (00:00) 5.5 7.22 (14:00) 3.33 (13:40) 0.6 0 0 0.6 0
24-03-2020 14.8 (14:40) 4.9 (00:00) 9.9 8.33 (17:20) 4.72 (01:00) 0 0 0 0 0
23-03-2020 13.7 (14:50) 5.5 (00:00) 9.6 8.89 (15:00) 3.61 (15:00) 4.1 3.3 0 0.3 0.5
22-03-2020 15 (15:20) 3.4 (07:30) 9.2 6.11 (22:20) 3.89 (22:20) 4.8 0 0 0 4.8
21-03-2020 16.2 (14:20) 2.4 (00:00) 9.3 6.94 (02:00) 3.89 (02:00) 0 0 0 0 0
20-03-2020 15.8 (15:40) 4.1 (00:00) 10 7.5 (12:30) 3.61 (14:10) 0 0 0 0 0
19-03-2020 18.7 (14:30) 5.7 (00:00) 12.2 7.78 (15:50) 3.89 (16:40) 0 0 0 0 0
18-03-2020 14.6 (14:30) 4.7 (00:00) 9.7 5.28 (07:40) 3.06 (07:40) 0 0 0 0 0
17-03-2020 12.4 (15:30) 5.2 (00:00) 8.8 5.56 (02:30) 2.78 (02:30) 0 0 0 0 0
16-03-2020 9.5 (15:50) 5.1 (00:00) 7.3 10.83 (00:50) 3.89 (00:50) 19.2 9.8 8.9 0 0.5
15-03-2020 18.7 (13:10) 2.4 (00:00) 10.6 13.61 (23:10) 4.44 (23:10) 4.7 0 0 2.6 2.1
14-03-2020 16 (16:00) 3.4 (00:00) 9.7 7.22 (17:20) 3.61 (23:10) 0 0 0 0 0
13-03-2020 13.4 (14:30) 6.4 (07:20) 9.9 6.39 (16:30) 3.33 (16:30) 0 0 0 0 0
12-03-2020 24.8 (14:20) 8.1 (00:00) 16.4 7.22 (18:50) 3.06 (19:30) 0.1 0 0 0 0.1
11-03-2020 21.3 (16:10) 3 (00:00) 12.1 7.5 (20:40) 4.17 (20:40) 0 0 0 0 0
10-03-2020 18.7 (15:10) 2.2 (00:00) 10.5 10.83 (17:00) 4.44 (17:00) 0 0 0 0 0
09-03-2020 10.6 (15:00) 2.5 (00:00) 6.6 15 (15:20) 7.5 (15:20) 0 0 0 0 0
08-03-2020 14 (15:00) -1.5 (-00:0) 6.3 8.89 (16:30) 4.72 (16:30) 0 0 0 0 0
07-03-2020 10.3 (15:10) -1.4 (-00:0) 4.5 21.67 (10:20) 7.78 (10:10) 0.1 0.1 0 0 0
06-03-2020 2.1 (09:40) -0.7 (-00:0) 0.7 13.06 (11:40) 5.83 (11:40) 18 0 2.5 8.4 7.1
05-03-2020 9.7 (14:20) 1.4 (00:00) 5.5 20.28 (14:30) 10.56 (14:40) 5.5 0 1 4.5 0
04-03-2020 13.5 (15:50) 2.6 (00:00) 8 10 (12:30) 5 (14:30) 6.2 0.2 6 0 0
03-03-2020 8.3 (17:50) -0.2 (00:00) 4.1 19.17 (17:10) 8.33 (17:00) 10.1 0.1 9.4 0.6 0
02-03-2020 9.8 (06:00) -0.2 (00:00) 4.8 20.83 (06:40) 9.17 (06:40) 16.2 10 5 0.7 0.5
01-03-2020 12.9 (16:00) 4.1 (00:00) 8.5 5.83 (22:30) 3.06 (12:10) 1.1 0 0.2 0.1 0.8
29-02-2020 11.8 (14:00) 6.5 (00:00) 9.2 6.67 (01:50) 3.61 (16:00) 3.6 0 0 0.6 3

Gráficas

Temp. máximas Temp. mínimas Temp. medias Precipitaciones Rachas de viento máximas Velocidades máximas media en intervalos de 10 minutos

Datos horarios

Fecha y hora oficial Temperatura (ºC) Velocidad del viento (km/h) Dirección del viento Racha (km/h) Dirección de racha Precipitación (mm) Presión (hPa) Tendencia (hPa) Humedad (%)
2020-03-29 23:00:00 4.8 9 Oeste 25 Oeste 0 -- -- 72
2020-03-29 22:00:00 5.3 11 Oeste 27 Oeste 0 -- -- 66
2020-03-29 21:00:00 6.9 13 Oeste 36 Noroeste 0 -- -- 51
2020-03-29 20:00:00 8.9 22 Norte 58 Nordeste 0 -- -- 36
2020-03-29 19:00:00 9.9 31 Norte 54 Nordeste 0 -- -- 36
2020-03-29 18:00:00 11.9 22 Norte 46 Nordeste 0 -- -- 32
2020-03-29 17:00:00 13.9 14 Noroeste 35 Noroeste 0 -- -- 31
2020-03-29 16:00:00 14.8 11 Noroeste 27 Noroeste 0 -- -- 31
2020-03-29 15:00:00 15.5 9 Noroeste 24 Noroeste 0 -- -- 31
2020-03-29 14:00:00 13.7 7 Noroeste 18 Oeste 0 -- -- 34
2020-03-29 13:00:00 11.3 6 Noroeste 20 Noroeste 0 -- -- 40
2020-03-29 12:00:00 8.5 8 Noroeste 17 Noroeste 0 -- -- 47
2020-03-29 11:00:00 6.3 5 Noroeste 13 Noroeste 0 -- -- 55
2020-03-29 10:00:00 3.9 3 Noroeste 9 Oeste 0 -- -- 74
2020-03-29 09:00:00 0.4 0 Calma 8 Nordeste 0 -- -- 86
2020-03-29 08:00:00 -0.1 3 Norte 7 Norte 0 -- -- 83
2020-03-29 07:00:00 0.5 0 Calma 7 Nordeste 0 -- -- 81
2020-03-29 06:00:00 1 3 Nordeste 9 Nordeste 0 -- -- 81
2020-03-29 05:00:00 1.5 5 Nordeste 11 Nordeste 0 -- -- 79
2020-03-29 03:00:00 2.8 3 Nordeste 10 Nordeste 0 -- -- 72
2020-03-29 01:00:00 4.1 4 Nordeste 12 Nordeste 0 -- -- 66
2020-03-29 00:00:00 4.6 6 Nordeste 13 Nordeste 0 -- -- 64
2020-03-28 23:00:00 5.9 4 Nordeste 12 Nordeste 0 -- -- 55
2020-03-28 22:00:00 7.9 4 Noroeste 14 Oeste 0 -- -- 49
2020-03-28 21:00:00 9 3 Oeste 32 Nordeste 0 -- -- 46
2020-03-28 20:00:00 10 3 Norte 22 Noroeste 0 -- -- 39
2020-03-28 19:00:00 12.2 11 Noroeste 25 Noroeste 0 -- -- 34
2020-03-28 18:00:00 14.1 12 Noroeste 26 Noroeste 0 -- -- 29
2020-03-28 17:00:00 15 10 Noroeste 23 Oeste 0 -- -- 27
2020-03-28 16:00:00 15.8 7 Noroeste 23 Noroeste 0 -- -- 26
2020-03-28 15:00:00 15.4 9 Noroeste 20 Noroeste 0 -- -- 25
2020-03-28 14:00:00 14.7 8 Noroeste 21 Noroeste 0 -- -- 28
2020-03-28 13:00:00 12.9 8 Noroeste 21 Noroeste 0 -- -- 28
2020-03-28 12:00:00 11.3 8 Noroeste 18 Noroeste 0 -- -- 33
2020-03-28 11:00:00 9.8 5 Noroeste 14 Noroeste 0 -- -- 42
2020-03-28 10:00:00 7.7 0 Calma 6 Oeste 0 -- -- 51
2020-03-28 09:00:00 3.6 4 Nordeste 9 Nordeste 0 -- -- 70
2020-03-28 08:00:00 1 6 Nordeste 16 Nordeste 0 -- -- 77
2020-03-28 07:00:00 0.9 6 Nordeste 17 Nordeste 0 -- -- 77
2020-03-28 06:00:00 1.6 8 Nordeste 20 Nordeste 0 -- -- 72
2020-03-28 05:00:00 2 11 Nordeste 18 Nordeste 0 -- -- 68
2020-03-28 04:00:00 1.8 8 Nordeste 18 Nordeste 0 -- -- 69
2020-03-28 03:00:00 1.3 6 Nordeste 20 Este 0 -- -- 68
2020-03-28 02:00:00 1.8 8 Nordeste 19 Nordeste 0 -- -- 68
2020-03-28 01:00:00 2 8 Nordeste 14 Nordeste 0 -- -- 65
2020-03-28 00:00:00 2.4 2 Nordeste 14 Nordeste 0 -- -- 62
2020-03-27 23:00:00 3 0 Calma 5 Nordeste 0 -- -- 59
2020-03-27 22:00:00 4 3 Nordeste 6 Oeste 0 -- -- 53
2020-03-27 21:00:00 5 3 Norte 8 Nordeste 0 -- -- 47
2020-03-27 20:00:00 7 0 Calma 14 Noroeste 0 -- -- 37
2020-03-27 19:00:00 9.4 6 Noroeste 15 Noroeste 0 -- -- 28
2020-03-27 18:00:00 11.7 6 Noroeste 15 Noroeste 0 -- -- 25
2020-03-27 17:00:00 12.2 4 Noroeste 15 Noroeste 0 -- -- 25
2020-03-27 16:00:00 12.1 5 Noroeste 18 Noroeste 0 -- -- 25
2020-03-27 15:00:00 11.6 5 Noroeste 19 Noroeste 0 -- -- 27
2020-03-27 14:00:00 10.8 4 Oeste 18 Noroeste 0 -- -- 28
2020-03-27 13:00:00 9.5 4 Oeste 14 Noroeste 0 -- -- 30
2020-03-27 12:00:00 8.5 3 Oeste 14 Sudoeste 0 -- -- 37
2020-03-27 11:00:00 5.2 0 Calma 11 Sudeste 0 -- -- 53
2020-03-27 10:00:00 1.9 5 Sudeste 13 Sudeste 0 -- -- 84
2020-03-27 09:00:00 -1 6 Sudeste 11 Sudeste 0 -- -- 90
2020-03-27 08:00:00 -2.5 6 Sudeste 13 Sudeste 0 -- -- 90
2020-03-27 07:00:00 -2.9 6 Sudeste 12 Sudeste 0 -- -- 90
2020-03-27 06:00:00 -2.7 0 Calma 16 Norte 0 -- -- 87
2020-03-27 05:00:00 -2.6 4 Norte 9 Nordeste 0 -- -- 87
2020-03-27 04:00:00 -1.1 0 Calma 9 Nordeste 0 -- -- 86
2020-03-27 03:00:00 -1.4 3 Nordeste 12 Nordeste 0 -- -- 79
2020-03-27 02:00:00 0 4 Este 18 Nordeste 0 -- -- 78
2020-03-27 01:00:00 0.7 6 Sudeste 20 Sudeste 0 -- -- 78
2020-03-27 00:00:00 1.4 6 Sudeste 16 Sudeste 0 -- -- 65
2020-03-26 23:00:00 2.1 4 Sudoeste 16 Norte 0 -- -- 51
2020-03-26 22:00:00 1.5 3 Norte 12 Noroeste 0 -- -- 51
2020-03-26 21:00:00 2.1 3 Noroeste 14 Noroeste 0 -- -- 47
2020-03-26 20:00:00 3.6 6 Oeste 38 Norte 0 -- -- 36
2020-03-26 19:00:00 5.1 21 Norte 44 Nordeste 0 -- -- 27
2020-03-26 18:00:00 6.9 21 Norte 46 Nordeste 0 -- -- 24
2020-03-26 17:00:00 8.2 28 Norte 49 Nordeste 0 -- -- 23
2020-03-26 16:00:00 9.6 28 Norte 39 Nordeste 0 -- -- 20
2020-03-26 15:00:00 10.6 10 Norte 22 Nordeste 0 -- -- 19
2020-03-26 14:00:00 9.7 14 Nordeste 29 Nordeste 0 -- -- 21
2020-03-26 13:00:00 7.9 17 Norte 40 Nordeste 0 -- -- 24
2020-03-26 12:00:00 6.2 25 Nordeste 50 Nordeste 0 -- -- 27
2020-03-26 11:00:00 5.2 21 Nordeste 46 Nordeste 0 -- -- 27
2020-03-26 10:00:00 4.8 8 Noroeste 41 Este 0 -- -- 31
2020-03-26 09:00:00 3.8 3 Noroeste 21 Nordeste 0 -- -- 42
2020-03-26 08:00:00 0.6 5 Noroeste 14 Oeste 0 -- -- 79
2020-03-26 07:00:00 0.5 8 Noroeste 19 Oeste 0 -- -- 85
2020-03-26 06:00:00 -0.1 7 Oeste 14 Noroeste 0 -- -- 89
2020-03-26 05:00:00 -0.2 2 Oeste 9 Sudoeste 0 -- -- 90
2020-03-26 04:00:00 -0.8 0 Calma 5 Sudoeste 0 -- -- 90
2020-03-26 03:00:00 0 4 Sudoeste 9 Sudoeste 0 -- -- 90
2020-03-26 02:00:00 0.6 5 Oeste 10 Noroeste 0.1 -- -- 90
2020-03-26 01:00:00 1.9 3 Norte 12 Nordeste 0 -- -- 90
2020-03-26 00:00:00 1.9 3 Nordeste 10 Nordeste 0 -- -- 89
2020-03-25 23:00:00 2.2 3 Nordeste 9 Nordeste 0 -- -- 88
2020-03-25 22:00:00 2.7 2 Nordeste 5 Nordeste 0 -- -- 83
2020-03-25 21:00:00 4.1 0 Calma 10 Sur 0 -- -- 81
2020-03-25 20:00:00 4.1 4 Sudeste 10 Sur 0 -- -- 81
2020-03-25 19:00:00 4.4 4 Sudeste 14 Sudeste 0 -- -- 81
2020-03-25 18:00:00 4.4 4 Sudeste 18 Este 0.5 -- -- 79
2020-03-25 17:00:00 4.9 6 Sudeste 18 Este 0.1 -- -- 76
2020-03-25 16:00:00 5.3 6 Sudeste 18 Sudeste 0 -- -- 67
2020-03-25 15:00:00 5.9 9 Sudoeste 20 Sudoeste 0 -- -- 66
2020-03-25 14:00:00 6.4 11 Sudoeste 26 Sudoeste 0 -- -- 64
2020-03-25 13:00:00 6.8 10 Sudoeste 22 Sudoeste 0 -- -- 64
2020-03-25 12:00:00 7.8 7 Oeste 19 Oeste 0 -- -- 61
2020-03-25 11:00:00 6.6 8 Sudoeste 16 Sudoeste 0 -- -- 66
2020-03-25 10:00:00 6 6 Sudoeste 18 Sudoeste 0 -- -- 73
2020-03-25 09:00:00 5.2 5 Sudoeste 13 Sudoeste 0 -- -- 81
2020-03-25 08:00:00 5.1 4 Noroeste 10 Noroeste 0 -- -- 81
2020-03-25 07:00:00 5 2 Oeste 8 Noroeste 0 -- -- 79
2020-03-25 06:00:00 5.1 3 Oeste 10 Noroeste 0 -- -- 78
2020-03-25 05:00:00 5.3 3 Noroeste 9 Noroeste 0 -- -- 77
2020-03-25 04:00:00 5.3 3 Noroeste 9 Oeste 0 -- -- 76
2020-03-25 03:00:00 6 4 Noroeste 15 Sudoeste 0 -- -- 70
2020-03-25 02:00:00 6.3 2 Sudeste 16 Sudoeste 0 -- -- 72
2020-03-25 01:00:00 6.7 3 Oeste 10 Oeste 0 -- -- 72
2020-03-25 00:00:00 7.3 4 Noroeste 14 Noroeste 0 -- -- 68
2020-03-24 23:00:00 8.2 6 Sudoeste 12 Oeste 0 -- -- 70
2020-03-24 22:00:00 8.6 2 Este 15 Sudeste 0 -- -- 70
2020-03-24 21:00:00 8.8 7 Sudeste 20 Sudeste 0 -- -- 70
2020-03-24 20:00:00 9.2 8 Sudeste 20 Este 0 -- -- 65
2020-03-24 19:00:00 10.5 7 Sudoeste 17 Oeste 0 -- -- 57
2020-03-24 18:00:00 11.6 5 Oeste 30 Noroeste 0 -- -- 52
2020-03-24 17:00:00 13.1 11 Noroeste 26 Noroeste 0 -- -- 48
2020-03-24 16:00:00 13.8 8 Noroeste 25 Noroeste 0 -- -- 46
2020-03-24 15:00:00 14.2 10 Noroeste 23 Noroeste 0 -- -- 43
2020-03-24 14:00:00 14.1 6 Oeste 19 Norte 0 -- -- 43
2020-03-24 13:00:00 13.1 6 Noroeste 22 Noroeste 0 -- -- 49
2020-03-24 12:00:00 11.5 5 Noroeste 22 Noroeste 0 -- -- 57
2020-03-24 11:00:00 9.8 8 Noroeste 17 Noroeste 0 -- -- 70
2020-03-24 10:00:00 8.2 5 Noroeste 10 Noroeste 0 -- -- 79
2020-03-24 09:00:00 7.1 0 Calma 5 Nordeste 0 -- -- 86
2020-03-24 08:00:00 6 2 Nordeste 15 Nordeste 0 -- -- 88
2020-03-24 07:00:00 5.5 8 Nordeste 14 Nordeste 0 -- -- 88
2020-03-24 06:00:00 5.4 6 Nordeste 14 Nordeste 0 -- -- 88
2020-03-24 05:00:00 5.1 9 Nordeste 16 Nordeste 0 -- -- 88
2020-03-24 04:00:00 5.4 8 Nordeste 17 Nordeste 0 -- -- 88
2020-03-24 03:00:00 5.2 11 Nordeste 23 Nordeste 0 -- -- 89
2020-03-24 02:00:00 5.2 9 Nordeste 23 Norte 0 -- -- 89
2020-03-24 01:00:00 5.7 17 Nordeste 26 Nordeste 0 -- -- 89
2020-03-24 00:00:00 6.6 6 Nordeste 15 Nordeste 0 -- -- 88
2020-03-23 23:00:00 7.2 0 Calma 13 Nordeste 0.1 -- -- 88
2020-03-23 22:00:00 7.3 6 Nordeste 12 Nordeste 0 -- -- 88
2020-03-23 21:00:00 8 3 Norte 10 Este 0.1 -- -- 85
2020-03-23 20:00:00 8.6 3 Este 12 Nordeste 0.2 -- -- 83
2020-03-23 19:00:00 8.9 0 Calma 8 Norte 0.1 -- -- 77
2020-03-23 18:00:00 9.2 4 Nordeste 18 Sur 0.3 -- -- 66
2020-03-23 17:00:00 12.1 5 Nordeste 19 Sudeste 0 -- -- 61
2020-03-23 16:00:00 12.3 7 Sudeste 30 Sur 0 -- -- 44
2020-03-23 15:00:00 11.8 13 Sudeste 32 Sur 0 -- -- 44
2020-03-23 14:00:00 12.2 5 Sur 13 Sur 0 -- -- 46
2020-03-23 13:00:00 11.2 5 Sudeste 12 Este 0 -- -- 49
2020-03-23 12:00:00 11.6 4 Sur 12 Este 0 -- -- 53
2020-03-23 11:00:00 9.6 3 Sur 8 Sudoeste 0 -- -- 65
2020-03-23 10:00:00 8.5 2 Norte 8 Sudeste 0 -- -- 76
2020-03-23 09:00:00 7.1 0 Calma 10 Sudeste 0 -- -- 88
2020-03-23 08:00:00 5.8 3 Nordeste 9 Nordeste 0 -- -- 88
2020-03-23 07:00:00 5.9 3 Nordeste 8 Nordeste 0 -- -- 88
2020-03-23 06:00:00 5.8 2 Este 7 Sudeste 0 -- -- 88
2020-03-23 05:00:00 5.6 5 Nordeste 14 Nordeste 0 -- -- 88
2020-03-23 04:00:00 5.7 4 Nordeste 10 Nordeste 0 -- -- 88
2020-03-23 03:00:00 5.7 4 Este 15 Nordeste 0.1 -- -- 88
2020-03-23 02:00:00 5.6 6 Este 19 Nordeste 1.1 -- -- 89
2020-03-23 01:00:00 6.2 5 Nordeste 14 Sudeste 2.1 -- -- 88
2020-03-23 00:00:00 6.5 6 Sudeste 14 Sudeste 2.1 -- -- 89
2020-03-22 23:00:00 6.4 6 Nordeste 22 Nordeste 0.1 -- -- 89
2020-03-22 22:00:00 7.2 10 Norte 19 Nordeste 0.7 -- -- 89
2020-03-22 21:00:00 7.5 3 Noroeste 9 Noroeste 1.1 -- -- 85
2020-03-22 20:00:00 8.5 0 Calma 15 Nordeste 0.8 -- -- 82
2020-03-22 19:00:00 11.5 3 Oeste 13 Noroeste 0 -- -- 46
2020-03-22 18:00:00 13.3 4 Oeste 13 Noroeste 0 -- -- 40
2020-03-22 17:00:00 13.7 3 Noroeste 15 Oeste 0 -- -- 39
2020-03-22 16:00:00 14.3 4 Oeste 17 Sudoeste 0 -- -- 39
2020-03-22 15:00:00 14.2 4 Noroeste 12 Sudoeste 0 -- -- 40
2020-03-22 14:00:00 13.1 2 Sur 12 Norte 0 -- -- 41
2020-03-22 13:00:00 13.4 2 Nordeste 14 Oeste 0 -- -- 40
2020-03-22 12:00:00 12.4 2 Oeste 10 Sudoeste 0 -- -- 44
2020-03-22 11:00:00 10.2 0 Calma 8 Noroeste 0 -- -- 49
2020-03-22 10:00:00 8.6 0 Calma 5 Sudeste 0 -- -- 64
2020-03-22 09:00:00 6 0 Calma 5 Nordeste 0 -- -- 77
2020-03-22 08:00:00 3.9 0 Calma 10 Norte 0 -- -- 83
2020-03-22 07:00:00 3.8 4 Nordeste 12 Nordeste 0 -- -- 81
2020-03-22 06:00:00 4.9 6 Nordeste 13 Nordeste 0 -- -- 75
2020-03-22 05:00:00 6.5 0 Calma 7 Nordeste 0 -- -- 70
2020-03-22 04:00:00 6.9 0 Calma 5 Sudeste 0 -- -- 70
2020-03-22 03:00:00 7 3 Nordeste 9 Nordeste 0 -- -- 70
2020-03-22 02:00:00 7 5 Nordeste 8 Norte 0 -- -- 70
2020-03-22 01:00:00 7.2 3 Sur 6 Sudoeste 0 -- -- 64
2020-03-22 00:00:00 7.2 0 Calma 4 Noroeste 0 -- -- 68
2020-03-21 23:00:00 7.8 0 Calma 4 Nordeste 0 -- -- 63
2020-03-21 22:00:00 8.7 3 Sudoeste 8 Nordeste 0 -- -- 60
2020-03-21 21:00:00 8.5 3 Norte 9 Nordeste 0 -- -- 58
2020-03-21 20:00:00 9.1 2 Nordeste 7 Noroeste 0 -- -- 52
2020-03-21 19:00:00 11 0 Calma 19 Sudoeste 0 -- -- 43
2020-03-21 18:00:00 13.3 5 Sudoeste 17 Oeste 0 -- -- 38
2020-03-21 17:00:00 14.5 6 Oeste 20 Noroeste 0 -- -- 37
2020-03-21 16:00:00 15.1 8 Noroeste 22 Noroeste 0 -- -- 35
2020-03-21 15:00:00 15.8 8 Noroeste 19 Noroeste 0 -- -- 34
2020-03-21 14:00:00 15.4 3 Sur 13 Este 0 -- -- 31
2020-03-21 13:00:00 14.1 0 Calma 14 Sudeste 0 -- -- 37
2020-03-21 12:00:00 12.8 5 Sudeste 15 Sudeste 0 -- -- 40
2020-03-21 11:00:00 11 4 Sudeste 17 Este 0 -- -- 47
2020-03-21 10:00:00 9.3 6 Sudeste 15 Sudeste 0 -- -- 55
2020-03-21 09:00:00 6.2 4 Este 15 Nordeste 0 -- -- 70
2020-03-21 08:00:00 4 5 Nordeste 19 Nordeste 0 -- -- 79
2020-03-21 07:00:00 3.4 6 Nordeste 18 Nordeste 0 -- -- 79
2020-03-21 06:00:00 3.2 7 Nordeste 20 Nordeste 0 -- -- 83
2020-03-21 05:00:00 2.7 5 Nordeste 17 Nordeste 0 -- -- 84
2020-03-21 04:00:00 2.9 4 Nordeste 19 Nordeste 0 -- -- 81
2020-03-21 03:00:00 3.5 10 Nordeste 24 Nordeste 0 -- -- 79
2020-03-21 02:00:00 3.6 14 Nordeste 25 Nordeste 0 -- -- 79
2020-03-21 01:00:00 4.6 7 Nordeste 16 Nordeste 0 -- -- 75
2020-03-21 00:00:00 5.5 10 Nordeste 16 Nordeste 0 -- -- 69
2020-03-20 23:00:00 6.7 4 Este 13 Este 0 -- -- 58
2020-03-20 22:00:00 8.2 4 Este 12 Este 0 -- -- 52
2020-03-20 21:00:00 9.2 6 Este 18 Sudeste 0 -- -- 49
2020-03-20 20:00:00 10.4 9 Sudeste 19 Sur 0 -- -- 42
2020-03-20 19:00:00 12 7 Sudeste 17 Sudeste 0 -- -- 40
2020-03-20 18:00:00 13.6 4 Sudeste 19 Este 0 -- -- 36
2020-03-20 17:00:00 14.8 7 Sudeste 22 Sur 0 -- -- 33
2020-03-20 16:00:00 15.2 9 Sur 26 Sur 0 -- -- 31
2020-03-20 15:00:00 15.5 9 Sur 26 Sur 0 -- -- 28
2020-03-20 14:00:00 15.3 8 Sur 23 Sur 0 -- -- 31
2020-03-20 13:00:00 13.8 11 Sur 27 Sudeste 0 -- -- 36
2020-03-20 12:00:00 13 9 Sur 23 Sur 0 -- -- 39
2020-03-20 11:00:00 12.2 9 Sudeste 25 Sudeste 0 -- -- 40
2020-03-20 10:00:00 10.6 9 Sudeste 23 Sudeste 0 -- -- 42
2020-03-20 09:00:00 8.2 7 Sudeste 18 Sudeste 0 -- -- 57
2020-03-20 08:00:00 4.5 4 Este 13 Este 0 -- -- 72
2020-03-20 07:00:00 4.6 2 Este 11 Este 0 -- -- 68
2020-03-20 06:00:00 6.4 4 Este 12 Este 0 -- -- 60
2020-03-20 05:00:00 6.9 6 Este 13 Este 0 -- -- 63
2020-03-20 04:00:00 6.9 4 Este 12 Sudeste 0 -- -- 67
2020-03-20 03:00:00 7.4 3 Este 9 Sudeste 0 -- -- 62
2020-03-20 02:00:00 8.2 4 Este 17 Este 0 -- -- 55
2020-03-20 01:00:00 8.2 3 Este 13 Este 0 -- -- 55
2020-03-20 00:00:00 9.2 7 Este 15 Este 0 -- -- 51
2020-03-19 23:00:00 9.3 2 Este 11 Sudeste 0 -- -- 51
2020-03-19 22:00:00 10.3 4 Este 15 Este 0 -- -- 49
2020-03-19 21:00:00 11.3 5 Sudeste 20 Sur 0 -- -- 47
2020-03-19 20:00:00 12.3 4 Sudeste 12 Sudeste 0 -- -- 40
2020-03-19 19:00:00 13.7 5 Sudeste 18 Sur 0 -- -- 36
2020-03-19 18:00:00 15.2 4 Sur 23 Sur 0 -- -- 32
2020-03-19 17:00:00 16.3 11 Sur 27 Sur 0 -- -- 27
2020-03-19 16:00:00 16.5 12 Sur 28 Sudoeste 0 -- -- 28
2020-03-19 15:00:00 17.9 9 Sur 24 Sur 0 -- -- 27
2020-03-19 14:00:00 17.6 6 Sudeste 17 Sudeste 0 -- -- 34
2020-03-19 13:00:00 16.3 5 Sudoeste 15 Noroeste 0 -- -- 42
2020-03-19 12:00:00 14.6 5 Noroeste 12 Oeste 0 -- -- 53
2020-03-19 11:00:00 12.8 4 Noroeste 8 Noroeste 0 -- -- 61
2020-03-19 10:00:00 10.4 4 Sur 7 Sur 0 -- -- 72
2020-03-19 09:00:00 7.5 0 Calma 11 Nordeste 0 -- -- 86
2020-03-19 08:00:00 5.8 0 Calma 8 Nordeste 0 -- -- 87
2020-03-19 07:00:00 5.9 0 Calma 5 Sudeste 0 -- -- 86
2020-03-19 06:00:00 6.2 2 Sur 19 Nordeste 0 -- -- 86
2020-03-19 05:00:00 6.4 8 Nordeste 19 Nordeste 0 -- -- 86
2020-03-19 04:00:00 6.4 6 Nordeste 18 Nordeste 0 -- -- 86
2020-03-19 03:00:00 6.5 11 Nordeste 21 Nordeste 0 -- -- 86
2020-03-19 02:00:00 6.8 10 Nordeste 21 Nordeste 0 -- -- 86
2020-03-19 01:00:00 7 9 Nordeste 19 Nordeste 0 -- -- 85
2020-03-19 00:00:00 7.4 8 Nordeste 17 Nordeste 0 -- -- 85
2020-03-18 23:00:00 7.6 5 Nordeste 13 Nordeste 0 -- -- 83
2020-03-18 22:00:00 8.5 0 Calma 14 Nordeste 0 -- -- 82
2020-03-18 21:00:00 9.3 5 Nordeste 11 Nordeste 0 -- -- 78
2020-03-18 20:00:00 10.9 0 Calma 7 Noroeste 0 -- -- 70
2020-03-18 19:00:00 12.3 3 Oeste 9 Sudoeste 0 -- -- 62
2020-03-18 18:00:00 13.4 4 Oeste 9 Noroeste 0 -- -- 57
2020-03-18 17:00:00 14 4 Noroeste 13 Noroeste 0 -- -- 51
2020-03-18 16:00:00 14.2 5 Noroeste 12 Noroeste 0 -- -- 46
2020-03-18 15:00:00 14.5 3 Oeste 12 Noroeste 0 -- -- 44
2020-03-18 14:00:00 13.9 4 Noroeste 12 Noroeste 0 -- -- 47
2020-03-18 13:00:00 13 3 Noroeste 9 Noroeste 0 -- -- 57
2020-03-18 12:00:00 11.2 0 Calma 8 Sur 0 -- -- 68
2020-03-18 11:00:00 9.3 2 Sudeste 6 Este 0 -- -- 77
2020-03-18 10:00:00 7.5 3 Sudeste 7 Sudeste 0 -- -- 88
2020-03-18 09:00:00 5.9 3 Sudeste 7 Sur 0 -- -- 89
2020-03-18 08:00:00 5.3 2 Este 19 Nordeste 0 -- -- 89
2020-03-18 07:00:00 5.3 6 Nordeste 14 Nordeste 0 -- -- 89
2020-03-18 06:00:00 5.2 3 Nordeste 13 Nordeste 0 -- -- 89
2020-03-18 05:00:00 5.4 3 Nordeste 12 Nordeste 0 -- -- 88
2020-03-18 04:00:00 5.6 5 Nordeste 11 Nordeste 0 -- -- 88
2020-03-18 03:00:00 5.8 6 Nordeste 12 Nordeste 0 -- -- 88
2020-03-18 02:00:00 6.2 5 Nordeste 14 Nordeste 0 -- -- 88
2020-03-18 01:00:00 6.2 4 Nordeste 17 Nordeste 0 -- -- 88
2020-03-18 00:00:00 6.7 5 Nordeste 13 Nordeste 0 -- -- 88
2020-03-17 23:00:00 7.1 8 Nordeste 15 Nordeste 0 -- -- 88
2020-03-17 22:00:00 7.8 5 Nordeste 12 Nordeste 0 -- -- 87
2020-03-17 21:00:00 9.1 2 Nordeste 6 Nordeste 0 -- -- 83
2020-03-17 20:00:00 9.7 2 Noroeste 5 Norte 0 -- -- 81
2020-03-17 19:00:00 10.5 3 Oeste 8 Oeste 0 -- -- 76
2020-03-17 18:00:00 11.9 3 Sudeste 10 Sudeste 0 -- -- 64
2020-03-17 17:00:00 12.2 3 Este 13 Sudeste 0 -- -- 65
2020-03-17 16:00:00 12.2 5 Sudeste 14 Sudeste 0 -- -- 63
2020-03-17 15:00:00 11.8 4 Este 11 Este 0 -- -- 67
2020-03-17 14:00:00 10.3 0 Calma 5 Nordeste 0 -- -- 79
2020-03-17 13:00:00 9.3 3 Norte 6 Norte 0 -- -- 79
2020-03-17 12:00:00 8.9 0 Calma 10 Nordeste 0 -- -- 81
2020-03-17 11:00:00 7.7 4 Sudeste 11 Sudeste 0 -- -- 83
2020-03-17 10:00:00 6.7 6 Norte 15 Nordeste 0 -- -- 88
2020-03-17 09:00:00 6.2 2 Nordeste 10 Norte 0 -- -- 88
2020-03-17 08:00:00 5.5 0 Calma 9 Norte 0 -- -- 88
2020-03-17 07:00:00 5.4 2 Nordeste 8 Nordeste 0 -- -- 88
2020-03-17 06:00:00 5.7 3 Noroeste 9 Norte 0 -- -- 89
2020-03-17 05:00:00 5.6 4 Norte 14 Nordeste 0 -- -- 88
2020-03-17 04:00:00 5.8 2 Noroeste 12 Oeste 0 -- -- 89
2020-03-17 03:00:00 5.6 6 Norte 20 Nordeste 0 -- -- 89
2020-03-17 02:00:00 5.5 5 Nordeste 13 Nordeste 0 -- -- 89
2020-03-17 01:00:00 5.3 4 Nordeste 9 Oeste 0 -- -- 88
2020-03-17 00:00:00 6.3 3 Oeste 12 Norte 0 -- -- 88
2020-03-16 23:00:00 6.3 4 Norte 18 Nordeste 0 -- -- 88
2020-03-16 22:00:00 6.3 6 Norte 18 Norte 0 -- -- 83
2020-03-16 21:00:00 6.7 5 Norte 19 Nordeste 0 -- -- 81
2020-03-16 20:00:00 7 7 Nordeste 15 Nordeste 0.4 -- -- 82
2020-03-16 19:00:00 8.1 2 Este 15 Nordeste 0.1 -- -- 77
2020-03-16 18:00:00 8.3 5 Oeste 16 Nordeste 0 -- -- 73
2020-03-16 17:00:00 8.7 3 Nordeste 15 Nordeste 0 -- -- 62
2020-03-16 16:00:00 9 4 Nordeste 14 Sur 0 -- -- 63
2020-03-16 15:00:00 9 6 Sudeste 20 Sudeste 0 -- -- 62
2020-03-16 14:00:00 8.4 8 Sudeste 33 Sudeste 0 -- -- 62
2020-03-16 13:00:00 8.2 10 Sudeste 32 Sudeste 0 -- -- 63
2020-03-16 12:00:00 7.4 11 Sudeste 30 Sudeste 0 -- -- 73
2020-03-16 11:00:00 6.1 8 Sudeste 22 Sudeste 0.2 -- -- 82
2020-03-16 10:00:00 5.4 8 Sudeste 18 Sudeste 1.5 -- -- 85
2020-03-16 09:00:00 5.3 7 Sudeste 20 Sudeste 2.9 -- -- 85
2020-03-16 08:00:00 5.4 4 Sudeste 13 Sudeste 1.5 -- -- 85
2020-03-16 07:00:00 5.6 4 Este 23 Este 2.8 -- -- 79
2020-03-16 06:00:00 6.2 10 Este 23 Este 2.3 -- -- 79
2020-03-16 05:00:00 7 10 Este 27 Sudeste 1.8 -- -- 83
2020-03-16 04:00:00 7 5 Sur 19 Sudeste 1.9 -- -- 85
2020-03-16 03:00:00 7.3 6 Sudeste 20 Sudeste 3.5 -- -- 82
2020-03-16 02:00:00 8.1 9 Sudeste 27 Sudeste 0.1 -- -- 76
2020-03-16 01:00:00 7.8 13 Sudeste 39 Sudeste 0.2 -- -- 77
2020-03-16 00:00:00 8.4 12 Sudeste 49 Sudeste 0.2 -- -- 73
2020-03-15 23:00:00 9.3 14 Sudeste 35 Sudeste 1.2 -- -- 76
2020-03-15 22:00:00 10.3 10 Sudeste 29 Sudeste 0 -- -- 68
2020-03-15 21:00:00 10.3 13 Sudeste 31 Sudeste 0.5 -- -- 73
2020-03-15 20:00:00 10.7 8 Sudeste 31 Sur 0.2 -- -- 72
2020-03-15 19:00:00 11 8 Este 22 Sudeste 0 -- -- 72
2020-03-15 18:00:00 10.6 5 Este 39 Sudoeste 2.6 -- -- 81
2020-03-15 17:00:00 14.8 10 Sudeste 24 Sudeste 0 -- -- 40
2020-03-15 16:00:00 16.5 6 Sur 25 Sudeste 0 -- -- 34
2020-03-15 15:00:00 17.5 10 Sudeste 31 Sur 0 -- -- 32
2020-03-15 14:00:00 18 9 Sur 27 Sudeste 0 -- -- 30
2020-03-15 13:00:00 18.4 6 Sudeste 24 Sudeste 0 -- -- 28
2020-03-15 12:00:00 16.8 9 Sudeste 24 Sudeste 0 -- -- 31
2020-03-15 11:00:00 14.1 10 Sudeste 27 Sudeste 0 -- -- 36
2020-03-15 10:00:00 10.6 5 Sudeste 19 Sudeste 0 -- -- 47
2020-03-15 09:00:00 5.4 7 Nordeste 23 Nordeste 0 -- -- 61
2020-03-15 08:00:00 3 8 Nordeste 22 Nordeste 0 -- -- 72
2020-03-15 07:00:00 3.1 9 Nordeste 22 Nordeste 0 -- -- 70
2020-03-15 06:00:00 2.7 8 Nordeste 22 Nordeste 0 -- -- 73
2020-03-15 05:00:00 2.9 9 Nordeste 21 Nordeste 0 -- -- 72
2020-03-15 04:00:00 3.6 12 Nordeste 24 Nordeste 0 -- -- 68
2020-03-15 03:00:00 3.3 6 Nordeste 24 Nordeste 0 -- -- 70
2020-03-15 02:00:00 3.8 6 Nordeste 19 Nordeste 0 -- -- 70
2020-03-15 01:00:00 3.5 9 Nordeste 21 Nordeste 0 -- -- 72
2020-03-15 00:00:00 4.6 8 Nordeste 24 Nordeste 0 -- -- 65
2020-03-14 23:00:00 5 12 Nordeste 20 Nordeste 0 -- -- 65
2020-03-14 22:00:00 5.5 5 Nordeste 22 Nordeste 0 -- -- 63
2020-03-14 21:00:00 6.6 9 Nordeste 16 Nordeste 0 -- -- 57
2020-03-14 20:00:00 8.9 0 Calma 10 Oeste 0 -- -- 44
2020-03-14 19:00:00 11.4 6 Noroeste 24 Noroeste 0 -- -- 34
2020-03-14 18:00:00 13.5 10 Noroeste 26 Noroeste 0 -- -- 31
2020-03-14 17:00:00 15.2 9 Noroeste 24 Noroeste 0 -- -- 28
2020-03-14 16:00:00 15.7 8 Noroeste 22 Noroeste 0 -- -- 28
2020-03-14 15:00:00 15.2 5 Noroeste 20 Noroeste 0 -- -- 34
2020-03-14 14:00:00 13.4 6 Noroeste 18 Noroeste 0 -- -- 40
2020-03-14 13:00:00 12 5 Oeste 14 Noroeste 0 -- -- 44
2020-03-14 12:00:00 9.6 4 Noroeste 18 Noroeste 0 -- -- 49
2020-03-14 11:00:00 7.6 3 Sudoeste 9 Oeste 0 -- -- 68
2020-03-14 10:00:00 5.4 3 Norte 6 Norte 0 -- -- 88
2020-03-14 09:00:00 4.3 0 Calma 6 Noroeste 0 -- -- 88
2020-03-14 08:00:00 3.5 2 Noroeste 9 Noroeste 0 -- -- 88
2020-03-14 07:00:00 3.5 5 Noroeste 10 Oeste 0 -- -- 88
2020-03-14 06:00:00 3.5 5 Noroeste 10 Noroeste 0 -- -- 87
2020-03-14 05:00:00 4.3 4 Noroeste 9 Noroeste 0 -- -- 83
2020-03-14 04:00:00 5.6 3 Oeste 13 Noroeste 0 -- -- 81
2020-03-14 03:00:00 6.2 3 Noroeste 10 Noroeste 0 -- -- 77
2020-03-14 02:00:00 6.5 6 Oeste 12 Noroeste 0 -- -- 77
2020-03-14 01:00:00 6.7 3 Noroeste 13 Oeste 0 -- -- 77
2020-03-14 00:00:00 7.3 6 Noroeste 16 Noroeste 0 -- -- 73
2020-03-13 23:00:00 7.8 3 Oeste 8 Noroeste 0 -- -- 73
2020-03-13 22:00:00 7.9 3 Noroeste 10 Noroeste 0 -- -- 72
2020-03-13 21:00:00 8.1 4 Noroeste 13 Oeste 0 -- -- 70
2020-03-13 20:00:00 8.6 6 Oeste 21 Noroeste 0 -- -- 68
2020-03-13 19:00:00 9.4 5 Noroeste 17 Noroeste 0 -- -- 67
2020-03-13 18:00:00 10.3 6 Noroeste 17 Noroeste 0 -- -- 63
2020-03-13 17:00:00 10.8 8 Noroeste 23 Noroeste 0 -- -- 59
2020-03-13 16:00:00 12 9 Noroeste 19 Noroeste 0 -- -- 55
2020-03-13 15:00:00 12.9 8 Noroeste 18 Noroeste 0 -- -- 53
2020-03-13 14:00:00 12.8 4 Noroeste 11 Noroeste 0 -- -- 55
2020-03-13 13:00:00 10.8 3 Noroeste 12 Noroeste 0 -- -- 59
2020-03-13 12:00:00 9.6 0 Calma 14 Noroeste 0 -- -- 64
2020-03-13 11:00:00 9.4 8 Noroeste 14 Noroeste 0 -- -- 64
2020-03-13 10:00:00 9.4 2 Noroeste 19 Noroeste 0 -- -- 65
2020-03-13 09:00:00 7.5 8 Noroeste 14 Noroeste 0 -- -- 79
2020-03-13 08:00:00 6.9 0 Calma 15 Oeste 0 -- -- 81
2020-03-13 07:00:00 6.8 6 Noroeste 13 Oeste 0 -- -- 81
2020-03-13 06:00:00 7.3 0 Calma 10 Noroeste 0 -- -- 80
2020-03-13 05:00:00 7.6 4 Oeste 13 Noroeste 0 -- -- 81
2020-03-13 04:00:00 7.8 7 Oeste 16 Noroeste 0 -- -- 82
2020-03-13 03:00:00 8.3 4 Oeste 18 Noroeste 0 -- -- 79
2020-03-13 02:00:00 10 5 Oeste 14 Oeste 0 -- -- 72
2020-03-13 01:00:00 10.5 8 Sudeste 22 Nordeste 0 -- -- 70
2020-03-13 00:00:00 9.7 2 Norte 18 Noroeste 0.1 -- -- 74
2020-03-12 23:00:00 10.5 7 Noroeste 17 Noroeste 0 -- -- 70
2020-03-12 22:00:00 11.1 0 Calma 12 Noroeste 0 -- -- 68
2020-03-12 21:00:00 11.8 5 Noroeste 17 Oeste 0 -- -- 68
2020-03-12 20:00:00 13.1 6 Noroeste 24 Noroeste 0 -- -- 62
2020-03-12 19:00:00 15.3 9 Noroeste 26 Noroeste 0 -- -- 54
2020-03-12 18:00:00 18.3 8 Noroeste 18 Noroeste 0 -- -- 44
2020-03-12 17:00:00 21.2 5 Oeste 12 Noroeste 0 -- -- 33
2020-03-12 16:00:00 22.5 6 Noroeste 17 Noroeste 0 -- -- 29
2020-03-12 15:00:00 24 5 Oeste 20 Sudoeste 0 -- -- 27
2020-03-12 14:00:00 24.4 3 Sur 13 Sudeste 0 -- -- 27
2020-03-12 13:00:00 22.8 4 Sudeste 13 Sudeste 0 -- -- 28
2020-03-12 12:00:00 21.2 4 Sur 10 Sudeste 0 -- -- 33
2020-03-12 11:00:00 18.4 3 Sur 10 Sudeste 0 -- -- 38
2020-03-12 10:00:00 14 3 Sudeste 10 Sudeste 0 -- -- 46
2020-03-12 09:00:00 10.7 0 Calma 14 Nordeste 0 -- -- 51
2020-03-12 08:00:00 8.6 5 Nordeste 15 Este 0 -- -- 51
2020-03-12 07:00:00 8.5 3 Este 19 Nordeste 0 -- -- 49
2020-03-12 06:00:00 8.5 7 Nordeste 19 Nordeste 0 -- -- 49
2020-03-12 05:00:00 9 5 Nordeste 21 Nordeste 0 -- -- 48
2020-03-12 04:00:00 8.6 4 Nordeste 12 Nordeste 0 -- -- 49
2020-03-12 03:00:00 8.6 3 Este 19 Nordeste 0 -- -- 48
2020-03-12 02:00:00 9.5 8 Nordeste 20 Nordeste 0 -- -- 46
2020-03-12 01:00:00 9.5 6 Nordeste 13 Nordeste 0 -- -- 44
2020-03-12 00:00:00 9.7 4 Este 18 Nordeste 0 -- -- 43
2020-03-11 23:00:00 8.8 8 Nordeste 18 Nordeste 0 -- -- 45
2020-03-11 22:00:00 9.8 8 Nordeste 22 Nordeste 0 -- -- 43
2020-03-11 21:00:00 11.2 8 Nordeste 27 Nordeste 0 -- -- 42
2020-03-11 20:00:00 13.1 12 Nordeste 23 Nordeste 0 -- -- 36
2020-03-11 19:00:00 16 3 Nordeste 10 Noroeste 0 -- -- 30
2020-03-11 18:00:00 19.9 5 Noroeste 19 Noroeste 0 -- -- 24
2020-03-11 17:00:00 20.6 8 Noroeste 19 Noroeste 0 -- -- 23
2020-03-11 16:00:00 21.2 8 Noroeste 21 Noroeste 0 -- -- 22
2020-03-11 15:00:00 20.4 7 Noroeste 19 Noroeste 0 -- -- 25
2020-03-11 14:00:00 19.5 5 Noroeste 17 Noroeste 0 -- -- 30
2020-03-11 13:00:00 18 6 Noroeste 14 Norte 0 -- -- 31
2020-03-11 12:00:00 16.2 2 Noroeste 9 Norte 0 -- -- 33
2020-03-11 11:00:00 13.9 0 Calma 6 Sudoeste 0 -- -- 34
2020-03-11 10:00:00 11.2 3 Sudeste 9 Sudeste 0 -- -- 39
2020-03-11 09:00:00 6.8 6 Sudeste 13 Nordeste 0 -- -- 45
2020-03-11 08:00:00 3.3 0 Calma 11 Nordeste 0 -- -- 51
2020-03-11 07:00:00 3 2 Sudeste 6 Sudeste 0 -- -- 49
2020-03-11 06:00:00 4.1 0 Calma 8 Nordeste 0 -- -- 44
2020-03-11 05:00:00 3.8 0 Calma 12 Sudeste 0 -- -- 45
2020-03-11 04:00:00 4.6 2 Sur 9 Sur 0 -- -- 42
2020-03-11 03:00:00 4.7 5 Sur 8 Sudeste 0 -- -- 39
2020-03-11 02:00:00 5.7 3 Sur 14 Sudeste 0 -- -- 35
2020-03-11 01:00:00 6.9 7 Sudeste 14 Sudeste 0 -- -- 33
2020-03-11 00:00:00 6.6 3 Norte 12 Nordeste 0 -- -- 30
2020-03-10 23:00:00 9.1 5 Sur 11 Sudoeste 0 -- -- 25
2020-03-10 22:00:00 10.1 7 Oeste 23 Noroeste 0 -- -- 24
2020-03-10 21:00:00 11.1 6 Oeste 14 Oeste 0 -- -- 23
2020-03-10 20:00:00 12.4 3 Oeste 14 Sudoeste 0 -- -- 23
2020-03-10 19:00:00 13.8 5 Oeste 18 Noroeste 0 -- -- 23
2020-03-10 18:00:00 15.2 11 Noroeste 35 Noroeste 0 -- -- 24
2020-03-10 17:00:00 16.9 16 Noroeste 39 Noroeste 0 -- -- 25
2020-03-10 16:00:00 17.7 13 Noroeste 31 Noroeste 0 -- -- 26
2020-03-10 15:00:00 18.4 8 Oeste 24 Noroeste 0 -- -- 25
2020-03-10 14:00:00 16.9 10 Noroeste 26 Noroeste 0 -- -- 26
2020-03-10 13:00:00 15.8 7 Noroeste 20 Noroeste 0 -- -- 28
2020-03-10 12:00:00 13.7 3 Sudoeste 13 Sudoeste 0 -- -- 33
2020-03-10 11:00:00 9.6 4 Sur 14 Sur 0 -- -- 44
2020-03-10 10:00:00 6 6 Sur 15 Sudeste 0 -- -- 62
2020-03-10 09:00:00 4.3 6 Sudeste 15 Sudeste 0 -- -- 68
2020-03-10 08:00:00 2.5 9 Sudeste 17 Sudeste 0 -- -- 69
2020-03-10 07:00:00 2.5 7 Sur 15 Sur 0 -- -- 68
2020-03-10 06:00:00 2.4 8 Sur 12 Sudoeste 0 -- -- 70
2020-03-10 05:00:00 3.2 2 Sudoeste 10 Sudeste 0 -- -- 65
2020-03-10 04:00:00 3.6 2 Oeste 18 Noroeste 0 -- -- 65
2020-03-10 03:00:00 3.2 3 Noroeste 22 Oeste 0 -- -- 68
2020-03-10 02:00:00 3.2 7 Noroeste 29 Oeste 0 -- -- 70
2020-03-10 01:00:00 3.1 6 Oeste 31 Sudoeste 0 -- -- 70
2020-03-10 00:00:00 3.5 6 Oeste 35 Sudoeste 0 -- -- 68
2020-03-09 23:00:00 3.5 10 Oeste 31 Sudoeste 0 -- -- 60
2020-03-09 22:00:00 3.8 6 Oeste 35 Oeste 0 -- -- 68
2020-03-09 21:00:00 4.1 10 Oeste 34 Oeste 0 -- -- 64
2020-03-09 20:00:00 4 14 Noroeste 32 Noroeste 0 -- -- 60
2020-03-09 19:00:00 6.1 13 Noroeste 40 Noroeste 0 -- -- 44
2020-03-09 18:00:00 8 13 Norte 42 Noroeste 0 -- -- 36
2020-03-09 17:00:00 8.6 22 Noroeste 45 Noroeste 0 -- -- 40
2020-03-09 16:00:00 9.8 16 Norte 54 Nordeste 0 -- -- 34
2020-03-09 15:00:00 9.3 24 Nordeste 51 Noroeste 0 -- -- 34
2020-03-09 14:00:00 10.1 14 Norte 50 Noroeste 0 -- -- 37
2020-03-09 13:00:00 8.9 23 Noroeste 49 Noroeste 0 -- -- 38
2020-03-09 12:00:00 8.7 21 Noroeste 44 Noroeste 0 -- -- 46
2020-03-09 11:00:00 8.2 15 Noroeste 34 Noroeste 0 -- -- 44
2020-03-09 10:00:00 5.9 13 Oeste 30 Noroeste 0 -- -- 64
2020-03-09 09:00:00 4.2 9 Noroeste 24 Noroeste 0 -- -- 75
2020-03-09 08:00:00 2.7 10 Noroeste 25 Oeste 0 -- -- 78
2020-03-09 07:00:00 2.7 13 Noroeste 29 Noroeste 0 -- -- 75
2020-03-09 06:00:00 3.4 13 Noroeste 27 Noroeste 0 -- -- 68
2020-03-09 05:00:00 4.6 16 Noroeste 39 Noroeste 0 -- -- 62
2020-03-09 04:00:00 5.7 21 Norte 45 Norte 0 -- -- 53
2020-03-09 03:00:00 6.5 14 Noroeste 32 Noroeste 0 -- -- 55
2020-03-09 02:00:00 5.6 8 Norte 33 Noroeste 0 -- -- 67
2020-03-09 01:00:00 6.1 14 Noroeste 27 Norte 0 -- -- 64
2020-03-09 00:00:00 6.5 10 Oeste 27 Noroeste 0 -- -- 70
2020-03-08 23:00:00 5 4 Norte 22 Noroeste 0 -- -- 75
2020-03-08 22:00:00 6.6 9 Noroeste 18 Noroeste 0 -- -- 72
2020-03-08 21:00:00 7.2 9 Noroeste 18 Noroeste 0 -- -- 67
2020-03-08 20:00:00 8.3 7 Noroeste 21 Noroeste 0 -- -- 64
2020-03-08 19:00:00 9.4 9 Noroeste 27 Noroeste 0 -- -- 57
2020-03-08 18:00:00 11.2 8 Noroeste 27 Noroeste 0 -- -- 49
2020-03-08 17:00:00 10.9 15 Noroeste 32 Noroeste 0 -- -- 46
2020-03-08 16:00:00 11.5 11 Noroeste 29 Noroeste 0 -- -- 40
2020-03-08 15:00:00 14 3 Oeste 18 Noroeste 0 -- -- 38
2020-03-08 14:00:00 12.4 7 Noroeste 20 Noroeste 0 -- -- 42
2020-03-08 13:00:00 10.3 4 Noroeste 16 Noroeste 0 -- -- 48
2020-03-08 12:00:00 8.7 3 Noroeste 12 Norte 0 -- -- 52
2020-03-08 11:00:00 6.2 0 Calma 6 Sudeste 0 -- -- 59
2020-03-08 10:00:00 3.8 0 Calma 7 Sur 0 -- -- 72
2020-03-08 09:00:00 0.1 2 Nordeste 14 Nordeste 0 -- -- 87
2020-03-08 08:00:00 -1.2 4 Nordeste 17 Nordeste 0 -- -- 87
2020-03-08 07:00:00 -1 3 Este 23 Nordeste 0 -- -- 87
2020-03-08 06:00:00 -0.7 3 Nordeste 22 Nordeste 0 -- -- 87
2020-03-08 05:00:00 -0.2 9 Nordeste 18 Este 0 -- -- 87
2020-03-08 04:00:00 -0.1 4 Nordeste 21 Nordeste 0 -- -- 87
2020-03-08 03:00:00 0.2 7 Nordeste 25 Nordeste 0 -- -- 87
2020-03-08 02:00:00 0.2 5 Nordeste 12 Nordeste 0 -- -- 85
2020-03-08 01:00:00 1.1 3 Nordeste 14 Nordeste 0 -- -- 83
2020-03-08 00:00:00 1.7 5 Nordeste 15 Nordeste 0 -- -- 83
2020-03-07 23:00:00 2.9 0 Calma 11 Noroeste 0 -- -- 81
2020-03-07 22:00:00 4 7 Noroeste 16 Noroeste 0 -- -- 81
2020-03-07 21:00:00 4.4 2 Norte 22 Oeste 0 -- -- 75
2020-03-07 20:00:00 5.1 12 Sudoeste 23 Noroeste 0 -- -- 66
2020-03-07 19:00:00 6.5 13 Norte 28 Noroeste 0 -- -- 53
2020-03-07 18:00:00 8.1 15 Noroeste 38 Noroeste 0 -- -- 49
2020-03-07 17:00:00 9.1 18 Noroeste 46 Noroeste 0 -- -- 47
2020-03-07 16:00:00 9.8 17 Noroeste 39 Noroeste 0 -- -- 44
2020-03-07 15:00:00 10.1 13 Norte 38 Noroeste 0 -- -- 42
2020-03-07 14:00:00 9.6 19 Noroeste 49 Noroeste 0 -- -- 44
2020-03-07 13:00:00 8.7 21 Noroeste 66 Norte 0 -- -- 43
2020-03-07 12:00:00 7.7 24 Norte 57 Norte 0 -- -- 43
2020-03-07 11:00:00 6.1 19 Norte 78 Norte 0 -- -- 49
2020-03-07 10:00:00 3.8 22 Norte 61 Noroeste 0 -- -- 58
2020-03-07 09:00:00 1.2 9 Oeste 23 Oeste 0 -- -- 90
2020-03-07 08:00:00 -0.2 8 Oeste 13 Oeste 0 -- -- 90
2020-03-07 07:00:00 -0.6 4 Noroeste 13 Noroeste 0 -- -- 90
2020-03-07 06:00:00 -0.7 8 Noroeste 19 Norte 0 -- -- 90
2020-03-07 05:00:00 -1.1 3 Oeste 11 Oeste 0 -- -- 90
2020-03-07 04:00:00 -1.2 0 Calma 8 Sudoeste 0 -- -- 90
2020-03-07 03:00:00 -0.8 2 Sudeste 12 Sudoeste 0 -- -- 90
2020-03-07 02:00:00 -0.8 4 Sudoeste 10 Sudoeste 0 -- -- 90
2020-03-07 01:00:00 -0.5 5 Sudoeste 10 Oeste 0.1 -- -- 90
2020-03-07 00:00:00 -0.5 4 Noroeste 12 Norte 0.2 -- -- 90
2020-03-06 23:00:00 -0.6 4 Noroeste 9 Noroeste 1.3 -- -- 90
2020-03-06 22:00:00 -0.5 3 Noroeste 28 Norte 1.8 -- -- 90
2020-03-06 21:00:00 -0.6 13 Noroeste 30 Norte 0.7 -- -- 90
2020-03-06 20:00:00 -0.6 8 Noroeste 19 Noroeste 1.7 -- -- 90
2020-03-06 19:00:00 -0.5 12 Noroeste 27 Noroeste 1.4 -- -- 90
2020-03-06 18:00:00 -0.4 9 Noroeste 39 Noroeste 2.8 -- -- 90
2020-03-06 17:00:00 0 12 Noroeste 45 Noroeste 1.4 -- -- 90
2020-03-06 16:00:00 0 12 Noroeste 30 Noroeste 0.6 -- -- 90
2020-03-06 15:00:00 -0.2 13 Noroeste 44 Noroeste 1.6 -- -- 90
2020-03-06 14:00:00 1.3 13 Noroeste 35 Norte 0 -- -- 91
2020-03-06 13:00:00 -0.2 10 Noroeste 30 Noroeste 2 -- -- 90
2020-03-06 12:00:00 -0.2 12 Oeste 47 Noroeste 1.3 -- -- 90
2020-03-06 11:00:00 2 9 Noroeste 29 Noroeste 0.7 -- -- 89
2020-03-06 10:00:00 1.6 15 Noroeste 32 Noroeste 0.3 -- -- 87
2020-03-06 09:00:00 1.5 9 Noroeste 36 Noroeste 0.1 -- -- 85
2020-03-06 08:00:00 1 2 Oeste 13 Oeste 0.1 -- -- 84
2020-03-06 07:00:00 0.7 6 Oeste 18 Noroeste 0 -- -- 83
2020-03-06 06:00:00 0.6 6 Oeste 12 Oeste 0 -- -- 83
2020-03-06 05:00:00 1.1 5 Noroeste 15 Noroeste 0 -- -- 83
2020-03-06 04:00:00 0.8 9 Noroeste 21 Noroeste 0 -- -- 83
2020-03-06 03:00:00 0.8 9 Noroeste 24 Noroeste 0 -- -- 83
2020-03-06 02:00:00 0.8 11 Noroeste 21 Noroeste 0 -- -- 85
2020-03-06 01:00:00 1.1 10 Noroeste 22 Noroeste 0 -- -- 85
2020-03-06 00:00:00 1.5 12 Noroeste 31 Noroeste 0 -- -- 81
2020-03-05 23:00:00 1.9 15 Noroeste 32 Noroeste 0 -- -- 78
2020-03-05 22:00:00 2.5 16 Noroeste 35 Noroeste 0 -- -- 72
2020-03-05 21:00:00 3.1 16 Noroeste 29 Noroeste 0 -- -- 69
2020-03-05 20:00:00 3.8 13 Noroeste 34 Noroeste 0 -- -- 76
2020-03-05 19:00:00 4.8 14 Noroeste 38 Noroeste 0 -- -- 66
2020-03-05 18:00:00 6.1 18 Noroeste 50 Noroeste 0 -- -- 63
2020-03-05 17:00:00 6.1 21 Norte 38 Norte 1 -- -- 79
2020-03-05 16:00:00 7.3 11 Noroeste 32 Norte 0 -- -- 70
2020-03-05 15:00:00 6.6 23 Norte 73 Norte 0.3 -- -- 63
2020-03-05 14:00:00 8.7 12 Noroeste 48 Noroeste 2.5 -- -- 85
2020-03-05 13:00:00 9.3 5 Noroeste 24 Oeste 0.7 -- -- 79
2020-03-05 12:00:00 8.6 0 Calma 10 Oeste 0.5 -- -- 88
2020-03-05 11:00:00 7.8 0 Calma 9 Nordeste 0.2 -- -- 88
2020-03-05 10:00:00 7.3 2 Este 10 Nordeste 0.1 -- -- 87
2020-03-05 09:00:00 6.8 0 Calma 12 Nordeste 0.1 -- -- 85
2020-03-05 08:00:00 6.6 7 Nordeste 15 Nordeste 0.1 -- -- 85
2020-03-05 07:00:00 6.8 8 Nordeste 18 Nordeste 0 -- -- 85
2020-03-05 06:00:00 6.4 5 Sudeste 15 Nordeste 0 -- -- 85
2020-03-05 05:00:00 6.6 5 Sudeste 12 Sudeste 0 -- -- 85
2020-03-05 04:00:00 6.5 3 Este 10 Nordeste 0 -- -- 85
2020-03-05 03:00:00 6.6 4 Sudeste 9 Sudeste 0 -- -- 85
2020-03-05 02:00:00 7.2 2 Sur 7 Norte 0 -- -- 83
2020-03-05 01:00:00 8.1 3 Sudeste 10 Este 0 -- -- 81
2020-03-05 00:00:00 8.3 6 Nordeste 13 Este 0 -- -- 79
2020-03-04 23:00:00 9.2 2 Este 14 Nordeste 0 -- -- 79
2020-03-04 22:00:00 9.3 6 Nordeste 11 Nordeste 0 -- -- 76
2020-03-04 21:00:00 9.8 2 Oeste 14 Noroeste 0 -- -- 79
2020-03-04 20:00:00 9.8 9 Noroeste 21 Noroeste 0 -- -- 79
2020-03-04 19:00:00 10 10 Noroeste 26 Noroeste 0 -- -- 79
2020-03-04 18:00:00 11.3 12 Noroeste 32 Noroeste 0 -- -- 68
2020-03-04 17:00:00 11.5 11 Oeste 35 Noroeste 0 -- -- 68
2020-03-04 16:00:00 13.2 13 Noroeste 32 Noroeste 0 -- -- 61
2020-03-04 15:00:00 12.4 16 Noroeste 36 Noroeste 0 -- -- 63
2020-03-04 14:00:00 11.9 12 Noroeste 31 Oeste 0 -- -- 75
2020-03-04 13:00:00 10.1 12 Noroeste 36 Noroeste 0 -- -- 89
2020-03-04 12:00:00 8 14 Noroeste 27 Noroeste 0.1 -- -- 90
2020-03-04 11:00:00 6.9 10 Noroeste 19 Noroeste 0.3 -- -- 89
2020-03-04 10:00:00 5.6 0 Calma 6 Nordeste 1.3 -- -- 89
2020-03-04 09:00:00 4.6 3 Sudeste 8 Sur 1.9 -- -- 88
2020-03-04 08:00:00 4.3 3 Nordeste 5 Norte 1.3 -- -- 87
2020-03-04 07:00:00 4.3 3 Oeste 10 Noroeste 1.1 -- -- 85
2020-03-04 06:00:00 4.1 3 Norte 11 Nordeste 0.2 -- -- 79
2020-03-04 05:00:00 4.7 0 Calma 18 Noroeste 0 -- -- 76
2020-03-04 04:00:00 4.8 11 Norte 28 Noroeste 0 -- -- 75
2020-03-04 03:00:00 4.3 10 Noroeste 26 Norte 0 -- -- 76
2020-03-04 02:00:00 3.6 8 Noroeste 21 Oeste 0 -- -- 75
2020-03-04 01:00:00 3 8 Noroeste 25 Noroeste 0 -- -- 72
2020-03-04 00:00:00 4.2 12 Noroeste 28 Oeste 0 -- -- 70
2020-03-03 23:00:00 4.1 14 Noroeste 32 Noroeste 0 -- -- 70
2020-03-03 22:00:00 4.1 16 Noroeste 34 Noroeste 0 -- -- 70
2020-03-03 21:00:00 5.6 18 Noroeste 42 Noroeste 0 -- -- 51
2020-03-03 20:00:00 6.6 21 Noroeste 48 Noroeste 0 -- -- 47
2020-03-03 19:00:00 7.1 24 Noroeste 56 Noroeste 0 -- -- 49
2020-03-03 18:00:00 8 27 Noroeste 69 Noroeste 0 -- -- 51
2020-03-03 17:00:00 7 30 Noroeste 65 Noroeste 0.1 -- -- 68
2020-03-03 16:00:00 2.8 10 Noroeste 20 Noroeste 0 -- -- 91
2020-03-03 15:00:00 1.4 7 Oeste 13 Oeste 0.3 -- -- 90
2020-03-03 14:00:00 1 0 Calma 10 Sudeste 0.2 -- -- 90
2020-03-03 13:00:00 0.8 4 Sudeste 12 Sur 0 -- -- 91
2020-03-03 12:00:00 0.2 3 Sudeste 13 Sudeste 1.7 -- -- 90
2020-03-03 11:00:00 0 0 Calma 8 Este 3 -- -- 90
2020-03-03 10:00:00 -0.1 3 Sudeste 8 Sur 1.9 -- -- 90
2020-03-03 09:00:00 -0.1 0 Calma 5 Oeste 1.5 -- -- 90
2020-03-03 08:00:00 -0.1 4 Oeste 10 Noroeste 1.1 -- -- 90
2020-03-03 07:00:00 0.5 3 Noroeste 12 Noroeste 0.2 -- -- 90
2020-03-03 06:00:00 0.6 9 Noroeste 16 Noroeste 0 -- -- 90
2020-03-03 05:00:00 0.4 7 Noroeste 15 Noroeste 0 -- -- 90
2020-03-03 04:00:00 0.1 6 Oeste 17 Oeste 0 -- -- 90
2020-03-03 03:00:00 0.1 7 Noroeste 26 Noroeste 0 -- -- 90
2020-03-03 02:00:00 0 11 Noroeste 28 Oeste 0 -- -- 90
2020-03-03 01:00:00 0.2 14 Noroeste 32 Noroeste 0.1 -- -- 91
2020-03-03 00:00:00 -0.1 10 Noroeste 34 Noroeste 0 -- -- 90
2020-03-02 23:00:00 0 13 Noroeste 26 Noroeste 0.1 -- -- 89
2020-03-02 22:00:00 0 12 Noroeste 34 Noroeste 0.4 -- -- 87
2020-03-02 21:00:00 0.8 15 Noroeste 35 Noroeste 0 -- -- 74
2020-03-02 20:00:00 0.4 13 Noroeste 29 Noroeste 0 -- -- 88
2020-03-02 19:00:00 0.5 15 Noroeste 36 Noroeste 0 -- -- 84
2020-03-02 18:00:00 1.5 21 Noroeste 53 Noroeste 0.1 -- -- 79
2020-03-02 17:00:00 3.1 24 Noroeste 47 Noroeste 0 -- -- 59
2020-03-02 16:00:00 3.7 15 Noroeste 43 Noroeste 0 -- -- 65
2020-03-02 15:00:00 2.6 19 Noroeste 40 Noroeste 0.6 -- -- 79
2020-03-02 14:00:00 5.1 15 Noroeste 49 Noroeste 0 -- -- 49
2020-03-02 13:00:00 5.2 18 Noroeste 44 Noroeste 0 -- -- 55
2020-03-02 12:00:00 4.8 22 Noroeste 54 Noroeste 0.1 -- -- 61
2020-03-02 11:00:00 4.2 20 Noroeste 45 Noroeste 0.1 -- -- 69
2020-03-02 10:00:00 4.4 23 Noroeste 53 Noroeste 0.2 -- -- 76
2020-03-02 09:00:00 4.6 15 Noroeste 37 Noroeste 0.3 -- -- 83
2020-03-02 08:00:00 4.8 10 Noroeste 49 Noroeste 0 -- -- 78
2020-03-02 07:00:00 5.4 25 Noroeste 75 Noroeste 4.3 -- -- 78
2020-03-02 06:00:00 9.7 16 Sudoeste 42 Sudoeste 0 -- -- 67
2020-03-02 05:00:00 9.3 13 Oeste 37 Sudoeste 0 -- -- 75
2020-03-02 04:00:00 6.3 4 Nordeste 13 Este 1.1 -- -- 88
2020-03-02 03:00:00 6.3 3 Este 19 Sudeste 2.8 -- -- 87
2020-03-02 02:00:00 6.4 3 Nordeste 14 Sudeste 4 -- -- 85
2020-03-02 01:00:00 6.8 4 Este 12 Sudeste 2.1 -- -- 85
2020-03-02 00:00:00 7.2 2 Nordeste 11 Este 0.8 -- -- 81
2020-03-01 23:00:00 7.9 6 Nordeste 21 Sudoeste 0 -- -- 70
2020-03-01 22:00:00 7.7 3 Nordeste 17 Nordeste 0 -- -- 68
2020-03-01 21:00:00 8.4 6 Nordeste 15 Nordeste 0 -- -- 57
2020-03-01 20:00:00 9.7 4 Sudeste 16 Sudoeste 0 -- -- 47
2020-03-01 19:00:00 9.9 3 Este 12 Sur 0 -- -- 49
2020-03-01 18:00:00 11.1 0 Calma 6 Norte 0 -- -- 44
2020-03-01 17:00:00 11.7 3 Noroeste 16 Noroeste 0 -- -- 40
2020-03-01 16:00:00 12.8 5 Oeste 18 Oeste 0 -- -- 40
2020-03-01 15:00:00 10.8 6 Nordeste 17 Nordeste 0 -- -- 48
2020-03-01 14:00:00 9.3 6 Nordeste 16 Nordeste 0 -- -- 58
2020-03-01 13:00:00 8.5 7 Nordeste 19 Nordeste 0.1 -- -- 67
2020-03-01 12:00:00 6.7 10 Nordeste 16 Norte 0.2 -- -- 76
2020-03-01 11:00:00 7 3 Sudeste 10 Sudeste 0 -- -- 77
2020-03-01 10:00:00 5.7 4 Sudeste 9 Este 0 -- -- 85
2020-03-01 09:00:00 5.2 4 Este 13 Nordeste 0 -- -- 87
2020-03-01 08:00:00 4.2 5 Nordeste 11 Nordeste 0 -- -- 89
2020-03-01 07:00:00 4.4 0 Calma 10 Nordeste 0 -- -- 89
2020-03-01 06:00:00 4.8 2 Nordeste 5 Sur 0 -- -- 89
2020-03-01 05:00:00 4.8 0 Calma 4 Nordeste 0 -- -- 89
2020-03-01 04:00:00 5 0 Calma 5 Nordeste 0 -- -- 89
2020-03-01 03:00:00 5.3 0 Calma 9 Oeste 0 -- -- 89
2020-03-01 02:00:00 5.4 4 Noroeste 9 Noroeste 0 -- -- 89
2020-03-01 01:00:00 5.8 4 Oeste 14 Noroeste 0 -- -- 89
2020-03-01 00:00:00 6.5 6 Noroeste 14 Oeste 0 -- -- 89
2020-02-29 23:00:00 7 8 Noroeste 16 Noroeste 0 -- -- 88
2020-02-29 22:00:00 7.2 3 Oeste 8 Noroeste 0.2 -- -- 87
2020-02-29 21:00:00 7.4 2 Nordeste 9 Nordeste 1.1 -- -- 86
2020-02-29 20:00:00 7.6 3 Nordeste 12 Sudeste 1.5 -- -- 83
2020-02-29 19:00:00 7.7 9 Nordeste 18 Nordeste 0.2 -- -- 83
2020-02-29 18:00:00 8.7 4 Sur 10 Sur 0.3 -- -- 73
2020-02-29 17:00:00 9.2 3 Sudeste 17 Nordeste 0.3 -- -- 70
2020-02-29 16:00:00 9.6 13 Nordeste 21 Nordeste 0 -- -- 61
2020-02-29 15:00:00 11.1 9 Nordeste 21 Nordeste 0 -- -- 46
2020-02-29 14:00:00 11.3 2 Sudeste 13 Sudoeste 0 -- -- 42
2020-02-29 13:00:00 10.5 9 Sudoeste 18 Oeste 0 -- -- 43
2020-02-29 12:00:00 10.5 2 Sudoeste 15 Sudeste 0 -- -- 48
2020-02-29 11:00:00 10.1 4 Sudeste 17 Sudeste 0 -- -- 49
2020-02-29 10:00:00 9.3 6 Sudeste 18 Sudeste 0 -- -- 53
2020-02-29 09:00:00 8.6 7 Sudeste 18 Sudeste 0 -- -- 57
2020-02-29 08:00:00 7.3 6 Sudeste 20 Sudeste 0 -- -- 62
2020-02-29 07:00:00 7.3 5 Este 16 Sudeste 0 -- -- 61
2020-02-29 06:00:00 7.5 4 Sudeste 14 Este 0 -- -- 60
2020-02-29 05:00:00 7.7 5 Este 16 Este 0 -- -- 59
2020-02-29 04:00:00 8.2 6 Este 21 Sudeste 0 -- -- 58
2020-02-29 03:00:00 8.1 7 Sudeste 18 Sudeste 0 -- -- 61
2020-02-29 02:00:00 7.7 8 Este 24 Este 0 -- -- 60
2020-02-29 01:00:00 8 7 Este 19 Sudeste 0 -- -- 59
2020-02-29 00:00:00 8.8 7 Este 21 Sudeste 0 -- -- 55